createdAt,value
2023-01-08T00:03:59.362Z,9.3
2023-01-08T00:09:59.160Z,9.3
2023-01-08T00:15:59.208Z,9.3
2023-01-08T00:21:59.302Z,9.3
2023-01-08T00:27:59.219Z,9.3
2023-01-08T00:33:59.188Z,9.3
2023-01-08T00:39:59.295Z,9.3
2023-01-08T00:45:59.240Z,9.3
2023-01-08T00:51:59.447Z,9.3
2023-01-08T00:57:59.313Z,9.3
2023-01-08T01:03:59.272Z,9.3
2023-01-08T01:09:59.197Z,9.4
2023-01-08T01:15:59.317Z,9.5
2023-01-08T01:21:59.162Z,9.3
2023-01-08T01:27:59.178Z,9.4
2023-01-08T01:33:59.270Z,9.4
2023-01-08T01:39:59.204Z,9.4
2023-01-08T01:45:59.242Z,9.4
2023-01-08T01:51:59.304Z,9.4
2023-01-08T01:57:59.162Z,9.5
2023-01-08T02:03:59.221Z,9.4
2023-01-08T02:09:59.288Z,9.3
2023-01-08T02:15:59.182Z,9.3
2023-01-08T02:21:59.225Z,9.3
2023-01-08T02:27:59.283Z,9.3
2023-01-08T02:33:59.151Z,9.2
2023-01-08T02:39:59.164Z,9.2
2023-01-08T02:45:59.359Z,9.1
2023-01-08T02:51:59.166Z,9.1
2023-01-08T02:57:59.193Z,9.1
2023-01-08T03:03:59.250Z,9.1
2023-01-08T03:09:59.201Z,9
2023-01-08T03:15:59.243Z,9
2023-01-08T03:21:59.313Z,9
2023-01-08T03:27:59.168Z,9
2023-01-08T03:33:59.169Z,9
2023-01-08T03:39:59.329Z,9
2023-01-08T03:45:59.247Z,8.9
2023-01-08T03:51:59.177Z,9
2023-01-08T03:57:59.296Z,9
2023-01-08T04:03:59.237Z,9.1
2023-01-08T04:09:59.221Z,8.9
2023-01-08T04:15:59.375Z,9
2023-01-08T04:21:59.184Z,8.9
2023-01-08T04:27:59.158Z,9
2023-01-08T04:33:59.313Z,9
2023-01-08T04:39:59.211Z,8.9
2023-01-08T04:45:59.257Z,9
2023-01-08T04:51:59.300Z,8.9
2023-01-08T04:57:59.166Z,8.9
2023-01-08T05:03:59.190Z,8.9
2023-01-08T05:09:59.263Z,8.9
2023-01-08T05:15:59.350Z,8.9
2023-01-08T05:21:59.179Z,8.9
2023-01-08T05:27:59.275Z,9
2023-01-08T05:33:59.176Z,9
2023-01-08T05:39:59.179Z,9
2023-01-08T05:45:59.374Z,9
2023-01-08T05:51:59.179Z,8.9
2023-01-08T05:57:59.172Z,8.8
2023-01-08T06:03:59.391Z,8.8
2023-01-08T06:09:59.176Z,8.9
2023-01-08T06:15:59.284Z,8.9
2023-01-08T06:21:59.303Z,8.8
2023-01-08T06:27:59.194Z,8.8
2023-01-08T06:33:59.197Z,8.7
2023-01-08T06:39:59.300Z,8.8
2023-01-08T06:45:59.158Z,8.7
2023-01-08T06:51:59.194Z,8.6
2023-01-08T06:57:59.297Z,8.8
2023-01-08T07:03:59.163Z,8.8
2023-01-08T07:09:59.156Z,8.7
2023-01-08T07:15:59.329Z,8.8
2023-01-08T07:21:59.169Z,8.8
2023-01-08T07:27:59.156Z,8.8
2023-01-08T07:33:59.289Z,8.6
2023-01-08T07:39:59.165Z,8.7
2023-01-08T07:45:59.180Z,8.6
2023-01-08T07:51:59.240Z,8.6
2023-01-08T07:57:59.173Z,8.6
2023-01-08T08:03:59.169Z,8.6
2023-01-08T08:09:59.305Z,8.6
2023-01-08T08:15:59.177Z,8.6
2023-01-08T08:21:59.193Z,8.5
2023-01-08T08:27:59.300Z,8.6
2023-01-08T08:33:59.183Z,8.7
2023-01-08T08:39:59.190Z,8.7
2023-01-08T08:45:59.302Z,8.7
2023-01-08T08:51:59.168Z,8.6
2023-01-08T08:57:59.179Z,8.6
2023-01-08T09:03:59.311Z,8.6
2023-01-08T09:09:59.204Z,8.7
2023-01-08T09:15:59.204Z,8.9
2023-01-08T09:21:59.303Z,8.8
2023-01-08T09:27:59.184Z,8.9
2023-01-08T09:33:59.568Z,9
2023-01-08T09:40:02.504Z,9.5
2023-01-08T09:45:59.166Z,9.6
2023-01-08T09:51:59.149Z,9.9
2023-01-08T09:58:01.194Z,9.6
2023-01-08T10:03:59.186Z,9.5
2023-01-08T10:09:59.156Z,9.2
2023-01-08T10:15:59.216Z,9.4
2023-01-08T10:21:59.161Z,9.2
2023-01-08T10:27:59.169Z,9
2023-01-08T10:33:59.181Z,8.9
2023-01-08T10:39:59.180Z,8.9
2023-01-08T10:45:59.264Z,9.3
2023-01-08T10:51:59.208Z,9.3
2023-01-08T10:57:59.163Z,9.3
2023-01-08T11:03:59.142Z,9.5
2023-01-08T11:09:59.188Z,9.6
2023-01-08T11:15:59.182Z,9.3
2023-01-08T11:21:59.228Z,9.5
2023-01-08T11:28:05.859Z,9.3
2023-01-08T11:33:59.158Z,9.4
2023-01-08T11:39:59.170Z,9.4
2023-01-08T11:45:59.300Z,9.4
2023-01-08T11:51:59.169Z,9.4
2023-01-08T11:57:59.173Z,9.3
2023-01-08T12:03:59.510Z,9.3
2023-01-08T12:09:59.169Z,9.6
2023-01-08T12:15:59.146Z,9.8
2023-01-08T12:21:59.176Z,9.6
2023-01-08T12:27:59.193Z,9.8
2023-01-08T12:33:59.176Z,9.9
2023-01-08T12:39:59.198Z,9.7
2023-01-08T12:45:59.354Z,9.2
2023-01-08T12:51:59.148Z,9.1
2023-01-08T12:57:59.166Z,9.3
2023-01-08T13:04:06.572Z,9.2
2023-01-08T13:09:59.165Z,8.9
2023-01-08T13:15:59.163Z,8.5
2023-01-08T13:21:59.185Z,8.9
2023-01-08T13:27:59.146Z,8.8
2023-01-08T13:33:59.188Z,8.4
2023-01-08T13:39:59.157Z,8.7
2023-01-08T13:45:59.274Z,8.5
2023-01-08T13:51:59.186Z,8.2
2023-01-08T13:57:59.168Z,8
2023-01-08T14:03:59.154Z,8.2
2023-01-08T14:09:59.284Z,8.2
2023-01-08T14:15:59.171Z,8.3
2023-01-08T14:21:59.134Z,8.5
2023-01-08T14:27:59.183Z,8.6
2023-01-08T14:33:59.185Z,8.5
2023-01-08T14:39:59.135Z,8.4
2023-01-08T14:45:59.202Z,8.5
2023-01-08T14:51:59.148Z,8.4
2023-01-08T14:57:59.129Z,8.5
2023-01-08T15:03:59.182Z,8.4
2023-01-08T15:09:59.141Z,8.4
2023-01-08T15:15:59.151Z,8.5
2023-01-08T15:21:59.189Z,8.3
2023-01-08T15:27:59.154Z,8.3
2023-01-08T15:33:59.164Z,8.5
2023-01-08T15:39:59.163Z,8.6
2023-01-08T15:45:59.164Z,8.8
2023-01-08T15:51:59.155Z,8.9
2023-01-08T15:57:59.147Z,8.9
2023-01-08T16:03:59.162Z,8.8
2023-01-08T16:09:59.148Z,8.7
2023-01-08T16:15:59.171Z,8.6
2023-01-08T16:21:59.177Z,8.5
2023-01-08T16:27:59.136Z,8.4
2023-01-08T16:33:59.184Z,8.5
2023-01-08T16:39:59.150Z,8.4
2023-01-08T16:45:59.190Z,8.4
2023-01-08T16:51:59.163Z,8.4
2023-01-08T16:57:59.118Z,8.3
2023-01-08T17:04:00.559Z,8.3
2023-01-08T17:09:59.249Z,8.3
2023-01-08T17:16:00.049Z,8.2
2023-01-08T17:21:59.174Z,8.2
2023-01-08T17:27:59.248Z,8.2
2023-01-08T17:33:59.160Z,8.2
2023-01-08T17:39:59.132Z,8.2
2023-01-08T17:45:59.230Z,8.2
2023-01-08T17:51:59.120Z,8.3
2023-01-08T17:57:59.129Z,8.2
2023-01-08T18:03:59.178Z,8.3
2023-01-08T18:10:05.747Z,8.3
2023-01-08T18:15:59.135Z,8.3
2023-01-08T18:21:59.163Z,8.3
2023-01-08T18:27:59.138Z,8.3
2023-01-08T18:33:59.140Z,8.3
2023-01-08T18:39:59.251Z,8.3
2023-01-08T18:45:59.206Z,8.2
2023-01-08T18:51:59.109Z,8.2
2023-01-08T18:57:59.137Z,8.2
2023-01-08T19:03:59.135Z,8.2
2023-01-08T19:09:59.111Z,8.1
2023-01-08T19:15:59.191Z,8.2
2023-01-08T19:21:59.165Z,8.1
2023-01-08T19:27:59.104Z,8.2
2023-01-08T19:33:59.172Z,8.3
2023-01-08T19:39:59.134Z,8.3
2023-01-08T19:45:59.202Z,8.3
2023-01-08T19:51:59.171Z,8.4
2023-01-08T19:57:59.102Z,8.4
2023-01-08T20:03:59.133Z,8.4
2023-01-08T20:09:59.158Z,8.4
2023-01-08T20:15:59.183Z,8.5
2023-01-08T20:21:59.129Z,8.5
2023-01-08T20:27:59.138Z,8.5
2023-01-08T20:33:59.128Z,8.5
2023-01-08T20:39:59.124Z,8.4
2023-01-08T20:46:05.783Z,8.5
2023-01-08T20:52:00.410Z,8.5
2023-01-08T20:57:59.131Z,8.6
2023-01-08T21:03:59.227Z,8.6
2023-01-08T21:09:59.128Z,8.6
2023-01-08T21:15:59.190Z,8.6
2023-01-08T21:21:59.147Z,8.5
2023-01-08T21:27:59.140Z,8.6
2023-01-08T21:33:59.144Z,8.6
2023-01-08T21:39:59.167Z,8.5
2023-01-08T21:45:59.131Z,8.6
2023-01-08T21:51:59.190Z,8.6
2023-01-08T21:57:59.207Z,8.5
2023-01-08T22:03:59.164Z,8.6
2023-01-08T22:09:59.123Z,8.6
2023-01-08T22:15:59.163Z,8.6
2023-01-08T22:21:59.118Z,8.6
2023-01-08T22:27:59.242Z,8.5
2023-01-08T22:33:59.173Z,8.5
2023-01-08T22:39:59.114Z,8.4
2023-01-08T22:45:59.277Z,8.3
2023-01-08T22:51:59.215Z,8.3
2023-01-08T22:57:59.219Z,8.2
2023-01-08T23:03:59.156Z,8.1
2023-01-08T23:09:59.149Z,8.2
2023-01-08T23:15:59.186Z,8
2023-01-08T23:21:59.125Z,8
2023-01-08T23:27:59.112Z,8
2023-01-08T23:33:59.124Z,7.9
2023-01-08T23:39:59.104Z,7.9
2023-01-08T23:45:59.165Z,7.8
2023-01-08T23:51:59.130Z,7.8
2023-01-08T23:57:59.102Z,7.8
